sensor_id;sensor_type;location;lat;lon;timestamp;P1;durP1;ratioP1;P2;durP2;ratioP2
69979;SDS011;57318;56.232;43.944;2023-02-15T00:01:49;27.23;;;10.93;;
69979;SDS011;57318;56.232;43.944;2023-02-15T00:04:17;25.98;;;11.52;;
69979;SDS011;57318;56.232;43.944;2023-02-15T00:06:44;29.63;;;12.40;;
69979;SDS011;57318;56.232;43.944;2023-02-15T00:09:10;31.40;;;11.97;;
69979;SDS011;57318;56.232;43.944;2023-02-15T00:14:13;28.10;;;10.60;;
69979;SDS011;57318;56.232;43.944;2023-02-15T00:16:47;30.33;;;11.38;;
69979;SDS011;57318;56.232;43.944;2023-02-15T00:19:14;29.88;;;12.48;;
69979;SDS011;57318;56.232;43.944;2023-02-15T00:21:41;32.83;;;12.02;;
69979;SDS011;57318;56.232;43.944;2023-02-15T00:24:08;30.70;;;11.82;;
69979;SDS011;57318;56.232;43.944;2023-02-15T00:26:37;26.05;;;10.73;;
69979;SDS011;57318;56.232;43.944;2023-02-15T00:29:04;30.73;;;12.82;;
69979;SDS011;57318;56.232;43.944;2023-02-15T00:31:30;30.90;;;11.50;;
69979;SDS011;57318;56.232;43.944;2023-02-15T00:34:13;31.55;;;11.38;;
69979;SDS011;57318;56.232;43.944;2023-02-15T00:36:44;29.50;;;12.10;;
69979;SDS011;57318;56.232;43.944;2023-02-15T00:39:10;31.48;;;12.02;;
69979;SDS011;57318;56.232;43.944;2023-02-15T00:41:36;29.75;;;12.45;;
69979;SDS011;57318;56.232;43.944;2023-02-15T00:44:02;32.20;;;12.43;;
69979;SDS011;57318;56.232;43.944;2023-02-15T00:46:28;29.20;;;12.38;;
69979;SDS011;57318;56.232;43.944;2023-02-15T00:48:54;29.25;;;13.02;;
69979;SDS011;57318;56.232;43.944;2023-02-15T00:51:19;31.83;;;12.27;;
69979;SDS011;57318;56.232;43.944;2023-02-15T00:53:47;29.98;;;11.85;;
69979;SDS011;57318;56.232;43.944;2023-02-15T00:56:13;28.30;;;11.63;;
69979;SDS011;57318;56.232;43.944;2023-02-15T00:58:39;30.27;;;12.23;;
69979;SDS011;57318;56.232;43.944;2023-02-15T01:01:09;30.77;;;12.60;;
69979;SDS011;57318;56.232;43.944;2023-02-15T01:03:37;29.90;;;12.10;;
69979;SDS011;57318;56.232;43.944;2023-02-15T01:06:03;30.33;;;12.05;;
69979;SDS011;57318;56.232;43.944;2023-02-15T01:08:29;31.30;;;12.82;;
69979;SDS011;57318;56.232;43.944;2023-02-15T01:10:54;33.97;;;12.27;;
69979;SDS011;57318;56.232;43.944;2023-02-15T01:13:20;29.83;;;12.25;;
69979;SDS011;57318;56.232;43.944;2023-02-15T01:15:52;30.88;;;11.82;;
69979;SDS011;57318;56.232;43.944;2023-02-15T01:18:19;29.58;;;11.73;;
69979;SDS011;57318;56.232;43.944;2023-02-15T01:20:45;29.53;;;12.20;;
69979;SDS011;57318;56.232;43.944;2023-02-15T01:23:10;30.90;;;11.80;;
69979;SDS011;57318;56.232;43.944;2023-02-15T01:25:36;32.90;;;11.77;;
69979;SDS011;57318;56.232;43.944;2023-02-15T01:28:02;31.65;;;11.50;;
69979;SDS011;57318;56.232;43.944;2023-02-15T01:30:28;27.77;;;11.20;;
69979;SDS011;57318;56.232;43.944;2023-02-15T01:32:54;27.50;;;11.33;;
69979;SDS011;57318;56.232;43.944;2023-02-15T01:35:19;35.60;;;13.10;;
69979;SDS011;57318;56.232;43.944;2023-02-15T01:37:45;31.93;;;11.93;;
69979;SDS011;57318;56.232;43.944;2023-02-15T01:40:15;26.80;;;10.93;;
69979;SDS011;57318;56.232;43.944;2023-02-15T01:42:42;26.13;;;10.73;;
69979;SDS011;57318;56.232;43.944;2023-02-15T01:48:05;27.20;;;9.45;;
69979;SDS011;57318;56.232;43.944;2023-02-15T01:50:41;26.15;;;10.88;;
69979;SDS011;57318;56.232;43.944;2023-02-15T01:53:15;29.33;;;11.15;;
69979;SDS011;57318;56.232;43.944;2023-02-15T01:55:47;25.27;;;10.23;;
69979;SDS011;57318;56.232;43.944;2023-02-15T01:58:18;26.23;;;11.27;;
69979;SDS011;57318;56.232;43.944;2023-02-15T02:00:45;23.55;;;9.15;;
69979;SDS011;57318;56.232;43.944;2023-02-15T02:03:10;22.20;;;10.03;;
69979;SDS011;57318;56.232;43.944;2023-02-15T02:08:03;24.98;;;9.55;;
69979;SDS011;57318;56.232;43.944;2023-02-15T02:10:29;25.27;;;9.33;;
69979;SDS011;57318;56.232;43.944;2023-02-15T02:12:57;21.70;;;9.73;;
69979;SDS011;57318;56.232;43.944;2023-02-15T02:22:04;22.33;;;8.90;;
69979;SDS011;57318;56.232;43.944;2023-02-15T02:30:06;24.73;;;9.55;;
69979;SDS011;57318;56.232;43.944;2023-02-15T02:33:08;19.27;;;8.70;;
69979;SDS011;57318;56.232;43.944;2023-02-15T02:35:56;20.75;;;9.07;;
69979;SDS011;57318;56.232;43.944;2023-02-15T02:38:35;25.23;;;9.90;;
69979;SDS011;57318;56.232;43.944;2023-02-15T02:43:58;24.95;;;9.25;;
69979;SDS011;57318;56.232;43.944;2023-02-15T02:46:53;20.48;;;7.95;;
69979;SDS011;57318;56.232;43.944;2023-02-15T02:49:27;20.50;;;9.27;;
69979;SDS011;57318;56.232;43.944;2023-02-15T02:52:04;20.98;;;9.40;;
69979;SDS011;57318;56.232;43.944;2023-02-15T02:54:32;24.52;;;9.02;;
69979;SDS011;57318;56.232;43.944;2023-02-15T02:57:01;22.98;;;9.10;;
69979;SDS011;57318;56.232;43.944;2023-02-15T02:59:32;20.00;;;9.18;;
69979;SDS011;57318;56.232;43.944;2023-02-15T03:04:37;21.00;;;8.82;;
69979;SDS011;57318;56.232;43.944;2023-02-15T03:07:13;16.67;;;8.23;;
69979;SDS011;57318;56.232;43.944;2023-02-15T03:09:48;21.10;;;8.85;;
69979;SDS011;57318;56.232;43.944;2023-02-15T03:12:18;17.88;;;8.35;;
69979;SDS011;57318;56.232;43.944;2023-02-15T03:14:48;26.13;;;8.85;;
69979;SDS011;57318;56.232;43.944;2023-02-15T03:17:21;20.65;;;8.70;;
69979;SDS011;57318;56.232;43.944;2023-02-15T03:19:49;20.15;;;8.60;;
69979;SDS011;57318;56.232;43.944;2023-02-15T03:22:28;22.40;;;9.02;;
69979;SDS011;57318;56.232;43.944;2023-02-15T03:27:59;17.67;;;8.38;;
69979;SDS011;57318;56.232;43.944;2023-02-15T03:30:28;17.95;;;8.55;;
69979;SDS011;57318;56.232;43.944;2023-02-15T03:32:56;22.48;;;8.63;;
69979;SDS011;57318;56.232;43.944;2023-02-15T03:35:25;15.90;;;7.65;;
69979;SDS011;57318;56.232;43.944;2023-02-15T03:38:09;20.38;;;8.45;;
69979;SDS011;57318;56.232;43.944;2023-02-15T03:40:38;19.90;;;7.93;;
69979;SDS011;57318;56.232;43.944;2023-02-15T03:44:11;18.58;;;8.77;;
69979;SDS011;57318;56.232;43.944;2023-02-15T03:46:35;22.73;;;9.35;;
69979;SDS011;57318;56.232;43.944;2023-02-15T03:49:10;17.13;;;8.13;;
69979;SDS011;57318;56.232;43.944;2023-02-15T03:51:43;17.77;;;8.70;;
69979;SDS011;57318;56.232;43.944;2023-02-15T03:54:15;20.52;;;8.48;;
69979;SDS011;57318;56.232;43.944;2023-02-15T03:57:04;18.30;;;8.40;;
69979;SDS011;57318;56.232;43.944;2023-02-15T03:59:50;19.85;;;8.95;;
69979;SDS011;57318;56.232;43.944;2023-02-15T04:02:37;20.20;;;9.07;;
69979;SDS011;57318;56.232;43.944;2023-02-15T04:05:09;23.60;;;10.30;;
69979;SDS011;57318;56.232;43.944;2023-02-15T04:07:34;24.47;;;9.97;;
69979;SDS011;57318;56.232;43.944;2023-02-15T04:10:00;21.47;;;9.60;;
69979;SDS011;57318;56.232;43.944;2023-02-15T04:12:44;23.15;;;9.25;;
69979;SDS011;57318;56.232;43.944;2023-02-15T04:15:13;22.87;;;10.27;;
69979;SDS011;57318;56.232;43.944;2023-02-15T04:17:57;22.17;;;10.05;;
69979;SDS011;57318;56.232;43.944;2023-02-15T04:20:22;25.83;;;10.10;;
69979;SDS011;57318;56.232;43.944;2023-02-15T04:23:06;21.63;;;10.18;;
69979;SDS011;57318;56.232;43.944;2023-02-15T04:25:51;26.23;;;10.02;;
69979;SDS011;57318;56.232;43.944;2023-02-15T04:28:16;25.40;;;10.47;;
69979;SDS011;57318;56.232;43.944;2023-02-15T04:30:42;24.20;;;9.93;;
69979;SDS011;57318;56.232;43.944;2023-02-15T04:33:08;26.63;;;11.07;;
69979;SDS011;57318;56.232;43.944;2023-02-15T04:35:34;24.70;;;10.50;;
69979;SDS011;57318;56.232;43.944;2023-02-15T04:37:59;21.10;;;9.40;;
69979;SDS011;57318;56.232;43.944;2023-02-15T04:40:25;20.05;;;10.35;;
69979;SDS011;57318;56.232;43.944;2023-02-15T04:42:51;24.40;;;11.23;;
69979;SDS011;57318;56.232;43.944;2023-02-15T04:45:16;27.60;;;11.03;;
69979;SDS011;57318;56.232;43.944;2023-02-15T04:47:45;27.25;;;9.77;;
69979;SDS011;57318;56.232;43.944;2023-02-15T04:50:11;25.85;;;10.07;;
69979;SDS011;57318;56.232;43.944;2023-02-15T04:52:38;24.98;;;10.15;;
69979;SDS011;57318;56.232;43.944;2023-02-15T04:55:04;23.87;;;10.40;;
69979;SDS011;57318;56.232;43.944;2023-02-15T04:57:30;25.50;;;10.90;;
69979;SDS011;57318;56.232;43.944;2023-02-15T04:59:55;26.17;;;11.10;;
69979;SDS011;57318;56.232;43.944;2023-02-15T05:02:23;26.98;;;10.63;;
69979;SDS011;57318;56.232;43.944;2023-02-15T05:04:49;24.20;;;10.77;;
69979;SDS011;57318;56.232;43.944;2023-02-15T05:09:41;24.00;;;10.15;;
69979;SDS011;57318;56.232;43.944;2023-02-15T05:12:06;22.77;;;11.03;;
69979;SDS011;57318;56.232;43.944;2023-02-15T05:14:32;30.40;;;10.87;;
69979;SDS011;57318;56.232;43.944;2023-02-15T05:16:58;21.63;;;9.47;;
69979;SDS011;57318;56.232;43.944;2023-02-15T05:19:26;26.15;;;10.90;;
69979;SDS011;57318;56.232;43.944;2023-02-15T05:21:52;27.05;;;12.32;;
69979;SDS011;57318;56.232;43.944;2023-02-15T05:24:18;28.47;;;12.50;;
69979;SDS011;57318;56.232;43.944;2023-02-15T05:27:02;26.40;;;11.73;;
69979;SDS011;57318;56.232;43.944;2023-02-15T05:29:46;22.88;;;10.98;;
69979;SDS011;57318;56.232;43.944;2023-02-15T05:32:12;25.03;;;11.53;;
69979;SDS011;57318;56.232;43.944;2023-02-15T05:34:39;24.08;;;11.45;;
69979;SDS011;57318;56.232;43.944;2023-02-15T05:37:05;28.73;;;12.33;;
69979;SDS011;57318;56.232;43.944;2023-02-15T05:39:30;31.30;;;12.93;;
69979;SDS011;57318;56.232;43.944;2023-02-15T05:41:58;27.87;;;12.40;;
69979;SDS011;57318;56.232;43.944;2023-02-15T05:44:25;29.70;;;12.77;;
69979;SDS011;57318;56.232;43.944;2023-02-15T05:46:50;28.70;;;13.33;;
69979;SDS011;57318;56.232;43.944;2023-02-15T05:49:16;26.80;;;11.87;;
69979;SDS011;57318;56.232;43.944;2023-02-15T05:51:41;27.30;;;11.43;;
69979;SDS011;57318;56.232;43.944;2023-02-15T05:54:07;22.37;;;10.13;;
69979;SDS011;57318;56.232;43.944;2023-02-15T05:56:33;25.67;;;9.83;;
69979;SDS011;57318;56.232;43.944;2023-02-15T05:58:58;22.93;;;9.80;;
69979;SDS011;57318;56.232;43.944;2023-02-15T06:01:24;22.00;;;9.77;;
69979;SDS011;57318;56.232;43.944;2023-02-15T06:03:50;19.20;;;9.03;;
69979;SDS011;57318;56.232;43.944;2023-02-15T06:08:42;19.85;;;8.90;;
69979;SDS011;57318;56.232;43.944;2023-02-15T06:11:08;19.17;;;8.93;;
69979;SDS011;57318;56.232;43.944;2023-02-15T06:13:34;17.30;;;8.77;;
69979;SDS011;57318;56.232;43.944;2023-02-15T06:16:00;18.65;;;9.18;;
69979;SDS011;57318;56.232;43.944;2023-02-15T06:18:26;19.73;;;9.57;;
69979;SDS011;57318;56.232;43.944;2023-02-15T06:20:51;17.93;;;8.60;;
69979;SDS011;57318;56.232;43.944;2023-02-15T06:23:17;20.70;;;9.27;;
69979;SDS011;57318;56.232;43.944;2023-02-15T06:25:44;17.67;;;9.35;;
69979;SDS011;57318;56.232;43.944;2023-02-15T06:28:10;17.27;;;8.95;;
69979;SDS011;57318;56.232;43.944;2023-02-15T06:30:36;18.70;;;8.70;;
69979;SDS011;57318;56.232;43.944;2023-02-15T06:33:01;23.53;;;9.90;;
69979;SDS011;57318;56.232;43.944;2023-02-15T06:35:27;20.93;;;9.63;;
69979;SDS011;57318;56.232;43.944;2023-02-15T06:37:53;19.13;;;8.93;;
69979;SDS011;57318;56.232;43.944;2023-02-15T06:40:18;21.17;;;10.17;;
69979;SDS011;57318;56.232;43.944;2023-02-15T06:42:44;25.27;;;10.30;;
69979;SDS011;57318;56.232;43.944;2023-02-15T06:45:10;23.77;;;9.95;;
69979;SDS011;57318;56.232;43.944;2023-02-15T06:47:36;18.67;;;9.50;;
69979;SDS011;57318;56.232;43.944;2023-02-15T06:50:02;22.25;;;10.30;;
69979;SDS011;57318;56.232;43.944;2023-02-15T06:52:29;20.67;;;10.30;;
69979;SDS011;57318;56.232;43.944;2023-02-15T06:54:55;17.97;;;10.47;;
69979;SDS011;57318;56.232;43.944;2023-02-15T06:57:20;19.97;;;10.23;;
69979;SDS011;57318;56.232;43.944;2023-02-15T06:59:46;21.83;;;10.07;;
69979;SDS011;57318;56.232;43.944;2023-02-15T07:02:12;23.20;;;10.80;;
69979;SDS011;57318;56.232;43.944;2023-02-15T07:04:38;24.00;;;10.75;;
69979;SDS011;57318;56.232;43.944;2023-02-15T07:07:07;18.83;;;10.43;;
69979;SDS011;57318;56.232;43.944;2023-02-15T07:09:35;21.00;;;10.23;;
69979;SDS011;57318;56.232;43.944;2023-02-15T07:12:01;23.52;;;11.40;;
69979;SDS011;57318;56.232;43.944;2023-02-15T07:14:45;22.10;;;11.23;;
69979;SDS011;57318;56.232;43.944;2023-02-15T07:17:11;21.90;;;11.47;;
69979;SDS011;57318;56.232;43.944;2023-02-15T07:19:37;23.13;;;12.30;;
69979;SDS011;57318;56.232;43.944;2023-02-15T07:22:02;24.50;;;12.17;;
69979;SDS011;57318;56.232;43.944;2023-02-15T07:24:30;19.27;;;10.50;;
69979;SDS011;57318;56.232;43.944;2023-02-15T07:26:55;22.10;;;11.87;;
69979;SDS011;57318;56.232;43.944;2023-02-15T07:31:48;24.15;;;11.80;;
69979;SDS011;57318;56.232;43.944;2023-02-15T07:34:13;20.63;;;11.23;;
69979;SDS011;57318;56.232;43.944;2023-02-15T07:36:39;21.60;;;11.70;;
69979;SDS011;57318;56.232;43.944;2023-02-15T07:39:05;21.53;;;10.60;;
69979;SDS011;57318;56.232;43.944;2023-02-15T07:41:30;21.43;;;11.50;;
69979;SDS011;57318;56.232;43.944;2023-02-15T07:43:56;18.30;;;10.10;;
69979;SDS011;57318;56.232;43.944;2023-02-15T07:46:21;22.23;;;11.23;;
69979;SDS011;57318;56.232;43.944;2023-02-15T07:48:47;19.20;;;10.50;;
69979;SDS011;57318;56.232;43.944;2023-02-15T07:51:13;20.05;;;9.90;;
69979;SDS011;57318;56.232;43.944;2023-02-15T07:53:40;20.35;;;9.93;;
69979;SDS011;57318;56.232;43.944;2023-02-15T07:56:09;17.88;;;10.05;;
69979;SDS011;57318;56.232;43.944;2023-02-15T07:58:36;20.88;;;10.40;;
69979;SDS011;57318;56.232;43.944;2023-02-15T08:01:20;21.27;;;11.38;;
69979;SDS011;57318;56.232;43.944;2023-02-15T08:03:54;19.33;;;10.13;;
69979;SDS011;57318;56.232;43.944;2023-02-15T08:06:21;19.65;;;11.15;;
69979;SDS011;57318;56.232;43.944;2023-02-15T08:08:47;21.27;;;10.60;;
69979;SDS011;57318;56.232;43.944;2023-02-15T08:11:14;20.83;;;10.93;;
69979;SDS011;57318;56.232;43.944;2023-02-15T08:16:37;22.60;;;11.20;;
69979;SDS011;57318;56.232;43.944;2023-02-15T08:21:45;17.73;;;10.43;;
69979;SDS011;57318;56.232;43.944;2023-02-15T08:24:14;21.50;;;9.73;;
69979;SDS011;57318;56.232;43.944;2023-02-15T08:26:40;20.33;;;10.48;;
69979;SDS011;57318;56.232;43.944;2023-02-15T08:29:06;17.87;;;10.00;;
69979;SDS011;57318;56.232;43.944;2023-02-15T08:33:58;20.05;;;9.73;;
69979;SDS011;57318;56.232;43.944;2023-02-15T08:36:25;20.47;;;9.87;;
69979;SDS011;57318;56.232;43.944;2023-02-15T08:38:53;17.40;;;9.77;;
69979;SDS011;57318;56.232;43.944;2023-02-15T08:41:23;21.48;;;10.65;;
69979;SDS011;57318;56.232;43.944;2023-02-15T08:43:52;20.15;;;10.35;;
69979;SDS011;57318;56.232;43.944;2023-02-15T08:46:19;21.42;;;11.07;;
69979;SDS011;57318;56.232;43.944;2023-02-15T08:48:46;19.92;;;10.80;;
69979;SDS011;57318;56.232;43.944;2023-02-15T08:51:22;22.00;;;11.23;;
69979;SDS011;57318;56.232;43.944;2023-02-15T08:56:17;20.67;;;11.82;;
69979;SDS011;57318;56.232;43.944;2023-02-15T08:58:45;21.67;;;11.43;;
69979;SDS011;57318;56.232;43.944;2023-02-15T09:01:12;22.60;;;11.57;;
69979;SDS011;57318;56.232;43.944;2023-02-15T09:03:43;20.75;;;11.02;;
69979;SDS011;57318;56.232;43.944;2023-02-15T09:06:09;21.67;;;12.05;;
69979;SDS011;57318;56.232;43.944;2023-02-15T09:08:36;19.60;;;10.90;;
69979;SDS011;57318;56.232;43.944;2023-02-15T09:11:08;20.63;;;11.03;;
69979;SDS011;57318;56.232;43.944;2023-02-15T09:13:36;21.70;;;11.85;;
69979;SDS011;57318;56.232;43.944;2023-02-15T09:16:04;21.20;;;10.77;;
69979;SDS011;57318;56.232;43.944;2023-02-15T09:18:32;21.67;;;11.23;;
69979;SDS011;57318;56.232;43.944;2023-02-15T09:21:07;20.42;;;11.57;;
69979;SDS011;57318;56.232;43.944;2023-02-15T09:23:35;19.20;;;10.60;;
69979;SDS011;57318;56.232;43.944;2023-02-15T09:26:07;20.63;;;11.10;;
69979;SDS011;57318;56.232;43.944;2023-02-15T09:28:35;19.73;;;11.57;;
69979;SDS011;57318;56.232;43.944;2023-02-15T09:31:04;17.33;;;10.80;;
69979;SDS011;57318;56.232;43.944;2023-02-15T09:33:35;16.67;;;10.48;;
69979;SDS011;57318;56.232;43.944;2023-02-15T09:36:02;19.33;;;11.02;;
69979;SDS011;57318;56.232;43.944;2023-02-15T09:38:28;16.00;;;10.77;;
69979;SDS011;57318;56.232;43.944;2023-02-15T09:41:04;17.13;;;10.80;;
69979;SDS011;57318;56.232;43.944;2023-02-15T09:49:37;19.30;;;11.48;;
69979;SDS011;57318;56.232;43.944;2023-02-15T10:06:35;15.93;;;8.95;;
69979;SDS011;57318;56.232;43.944;2023-02-15T10:20:51;15.70;;;9.20;;
69979;SDS011;57318;56.232;43.944;2023-02-15T10:28:52;20.27;;;10.45;;
69979;SDS011;57318;56.232;43.944;2023-02-15T10:52:54;18.05;;;9.85;;
69979;SDS011;57318;56.232;43.944;2023-02-15T10:58:38;15.30;;;9.27;;
69979;SDS011;57318;56.232;43.944;2023-02-15T11:04:30;17.08;;;9.48;;
69979;SDS011;57318;56.232;43.944;2023-02-15T11:07:14;12.23;;;8.37;;
69979;SDS011;57318;56.232;43.944;2023-02-15T11:09:44;12.65;;;8.23;;
69979;SDS011;57318;56.232;43.944;2023-02-15T11:12:16;14.65;;;8.48;;
69979;SDS011;57318;56.232;43.944;2023-02-15T11:14:58;12.65;;;7.95;;
69979;SDS011;57318;56.232;43.944;2023-02-15T11:17:34;12.65;;;8.48;;
69979;SDS011;57318;56.232;43.944;2023-02-15T11:22:48;12.35;;;7.72;;
69979;SDS011;57318;56.232;43.944;2023-02-15T11:25:39;11.50;;;7.78;;
69979;SDS011;57318;56.232;43.944;2023-02-15T11:28:05;11.10;;;7.63;;
69979;SDS011;57318;56.232;43.944;2023-02-15T11:30:43;16.13;;;9.57;;
69979;SDS011;57318;56.232;43.944;2023-02-15T11:33:18;17.67;;;9.55;;
69979;SDS011;57318;56.232;43.944;2023-02-15T11:35:49;13.60;;;8.63;;
69979;SDS011;57318;56.232;43.944;2023-02-15T11:38:32;12.93;;;8.02;;
69979;SDS011;57318;56.232;43.944;2023-02-15T11:41:05;13.60;;;8.40;;
69979;SDS011;57318;56.232;43.944;2023-02-15T11:43:50;13.02;;;8.13;;
69979;SDS011;57318;56.232;43.944;2023-02-15T11:46:21;15.27;;;8.35;;
69979;SDS011;57318;56.232;43.944;2023-02-15T11:48:47;17.03;;;8.63;;
69979;SDS011;57318;56.232;43.944;2023-02-15T11:51:14;14.10;;;9.00;;
69979;SDS011;57318;56.232;43.944;2023-02-15T11:53:43;17.65;;;9.38;;
69979;SDS011;57318;56.232;43.944;2023-02-15T11:56:16;15.25;;;8.95;;
69979;SDS011;57318;56.232;43.944;2023-02-15T12:01:52;13.07;;;7.57;;
69979;SDS011;57318;56.232;43.944;2023-02-15T12:04:20;13.30;;;7.83;;
69979;SDS011;57318;56.232;43.944;2023-02-15T12:06:52;14.93;;;8.18;;
69979;SDS011;57318;56.232;43.944;2023-02-15T12:11:54;15.95;;;7.97;;
69979;SDS011;57318;56.232;43.944;2023-02-15T12:15:04;16.98;;;8.10;;
69979;SDS011;57318;56.232;43.944;2023-02-15T12:17:33;18.95;;;9.63;;
69979;SDS011;57318;56.232;43.944;2023-02-15T12:20:04;14.45;;;8.60;;
69979;SDS011;57318;56.232;43.944;2023-02-15T12:22:53;21.45;;;10.15;;
69979;SDS011;57318;56.232;43.944;2023-02-15T12:25:37;17.73;;;10.15;;
69979;SDS011;57318;56.232;43.944;2023-02-15T12:30:57;16.73;;;9.40;;
69979;SDS011;57318;56.232;43.944;2023-02-15T12:41:28;18.05;;;9.48;;
69979;SDS011;57318;56.232;43.944;2023-02-15T12:44:07;17.40;;;9.50;;
69979;SDS011;57318;56.232;43.944;2023-02-15T12:49:23;24.52;;;11.35;;
69979;SDS011;57318;56.232;43.944;2023-02-15T12:51:53;20.00;;;9.93;;
69979;SDS011;57318;56.232;43.944;2023-02-15T12:56:47;23.30;;;10.18;;
69979;SDS011;57318;56.232;43.944;2023-02-15T12:59:13;19.75;;;10.88;;
69979;SDS011;57318;56.232;43.944;2023-02-15T13:01:45;18.30;;;9.45;;
69979;SDS011;57318;56.232;43.944;2023-02-15T13:06:52;15.75;;;8.32;;
69979;SDS011;57318;56.232;43.944;2023-02-15T13:12:20;19.80;;;9.40;;
69979;SDS011;57318;56.232;43.944;2023-02-15T13:14:54;18.33;;;8.68;;
69979;SDS011;57318;56.232;43.944;2023-02-15T13:17:24;20.38;;;10.77;;
69979;SDS011;57318;56.232;43.944;2023-02-15T13:19:56;21.15;;;10.15;;
69979;SDS011;57318;56.232;43.944;2023-02-15T13:22:35;21.10;;;10.30;;
69979;SDS011;57318;56.232;43.944;2023-02-15T13:27:43;20.85;;;8.95;;
69979;SDS011;57318;56.232;43.944;2023-02-15T13:32:40;21.23;;;10.70;;
69979;SDS011;57318;56.232;43.944;2023-02-15T13:35:13;20.58;;;9.52;;
69979;SDS011;57318;56.232;43.944;2023-02-15T13:40:37;19.33;;;9.50;;
69979;SDS011;57318;56.232;43.944;2023-02-15T13:43:20;17.50;;;9.07;;
69979;SDS011;57318;56.232;43.944;2023-02-15T13:50:52;21.05;;;9.52;;
69979;SDS011;57318;56.232;43.944;2023-02-15T13:56:26;17.85;;;8.77;;
69979;SDS011;57318;56.232;43.944;2023-02-15T13:59:20;22.40;;;9.40;;
69979;SDS011;57318;56.232;43.944;2023-02-15T14:01:58;22.90;;;9.88;;
69979;SDS011;57318;56.232;43.944;2023-02-15T14:07:26;18.25;;;9.75;;
69979;SDS011;57318;56.232;43.944;2023-02-15T14:10:01;19.25;;;9.43;;
69979;SDS011;57318;56.232;43.944;2023-02-15T14:31:54;20.05;;;9.52;;
69979;SDS011;57318;56.232;43.944;2023-02-15T14:36:52;18.45;;;8.52;;
69979;SDS011;57318;56.232;43.944;2023-02-15T14:39:26;18.50;;;8.68;;
69979;SDS011;57318;56.232;43.944;2023-02-15T14:42:30;19.40;;;9.40;;
69979;SDS011;57318;56.232;43.944;2023-02-15T14:45:05;18.30;;;8.52;;
69979;SDS011;57318;56.232;43.944;2023-02-15T14:47:43;21.73;;;9.80;;
69979;SDS011;57318;56.232;43.944;2023-02-15T14:53:15;20.08;;;8.93;;
69979;SDS011;57318;56.232;43.944;2023-02-15T14:55:42;23.67;;;8.60;;
69979;SDS011;57318;56.232;43.944;2023-02-15T14:58:11;17.13;;;8.27;;
69979;SDS011;57318;56.232;43.944;2023-02-15T15:00:39;18.50;;;8.40;;
69979;SDS011;57318;56.232;43.944;2023-02-15T15:03:24;16.90;;;8.40;;
69979;SDS011;57318;56.232;43.944;2023-02-15T15:05:51;16.98;;;8.43;;
69979;SDS011;57318;56.232;43.944;2023-02-15T15:08:25;15.85;;;7.90;;
69979;SDS011;57318;56.232;43.944;2023-02-15T15:10:58;19.63;;;8.68;;
69979;SDS011;57318;56.232;43.944;2023-02-15T15:13:56;18.00;;;8.20;;
69979;SDS011;57318;56.232;43.944;2023-02-15T15:16:30;18.42;;;9.27;;
69979;SDS011;57318;56.232;43.944;2023-02-15T15:19:12;20.90;;;9.60;;
69979;SDS011;57318;56.232;43.944;2023-02-15T15:22:02;16.92;;;8.63;;
69979;SDS011;57318;56.232;43.944;2023-02-15T15:32:46;17.67;;;7.95;;
69979;SDS011;57318;56.232;43.944;2023-02-15T15:40:51;20.02;;;8.95;;
69979;SDS011;57318;56.232;43.944;2023-02-15T15:43:34;17.02;;;7.75;;
69979;SDS011;57318;56.232;43.944;2023-02-15T15:49:19;15.60;;;7.05;;
69979;SDS011;57318;56.232;43.944;2023-02-15T15:51:46;18.20;;;9.05;;
69979;SDS011;57318;56.232;43.944;2023-02-15T15:54:14;19.52;;;9.15;;
69979;SDS011;57318;56.232;43.944;2023-02-15T15:56:43;19.58;;;9.82;;
69979;SDS011;57318;56.232;43.944;2023-02-15T15:59:14;20.40;;;9.18;;
69979;SDS011;57318;56.232;43.944;2023-02-15T16:01:45;15.60;;;7.93;;
69979;SDS011;57318;56.232;43.944;2023-02-15T16:04:12;16.70;;;8.38;;
69979;SDS011;57318;56.232;43.944;2023-02-15T16:06:48;18.65;;;8.85;;
69979;SDS011;57318;56.232;43.944;2023-02-15T16:09:21;19.30;;;8.43;;
69979;SDS011;57318;56.232;43.944;2023-02-15T16:11:57;21.70;;;9.82;;
69979;SDS011;57318;56.232;43.944;2023-02-15T16:14:36;20.25;;;9.20;;
69979;SDS011;57318;56.232;43.944;2023-02-15T16:17:05;19.45;;;8.93;;
69979;SDS011;57318;56.232;43.944;2023-02-15T16:19:35;19.20;;;8.35;;
69979;SDS011;57318;56.232;43.944;2023-02-15T16:22:03;14.90;;;7.25;;
69979;SDS011;57318;56.232;43.944;2023-02-15T16:24:42;15.77;;;7.95;;
69979;SDS011;57318;56.232;43.944;2023-02-15T16:27:34;14.57;;;7.53;;
69979;SDS011;57318;56.232;43.944;2023-02-15T16:33:04;14.50;;;6.90;;
69979;SDS011;57318;56.232;43.944;2023-02-15T16:35:39;20.52;;;7.88;;
69979;SDS011;57318;56.232;43.944;2023-02-15T16:38:18;16.35;;;7.63;;
69979;SDS011;57318;56.232;43.944;2023-02-15T16:40:53;17.88;;;7.88;;
69979;SDS011;57318;56.232;43.944;2023-02-15T16:43:26;13.93;;;8.15;;
69979;SDS011;57318;56.232;43.944;2023-02-15T16:46:08;16.65;;;7.63;;
69979;SDS011;57318;56.232;43.944;2023-02-15T16:48:39;14.73;;;6.97;;
69979;SDS011;57318;56.232;43.944;2023-02-15T16:51:08;15.93;;;7.55;;
69979;SDS011;57318;56.232;43.944;2023-02-15T16:53:34;20.35;;;7.90;;
69979;SDS011;57318;56.232;43.944;2023-02-15T16:56:02;16.65;;;7.40;;
69979;SDS011;57318;56.232;43.944;2023-02-15T16:58:43;18.95;;;8.05;;
69979;SDS011;57318;56.232;43.944;2023-02-15T17:01:11;15.63;;;7.43;;
69979;SDS011;57318;56.232;43.944;2023-02-15T17:03:40;14.43;;;7.25;;
69979;SDS011;57318;56.232;43.944;2023-02-15T17:06:26;14.68;;;7.50;;
69979;SDS011;57318;56.232;43.944;2023-02-15T17:09:03;15.40;;;6.88;;
69979;SDS011;57318;56.232;43.944;2023-02-15T17:11:40;17.33;;;7.47;;
69979;SDS011;57318;56.232;43.944;2023-02-15T17:19:23;16.45;;;7.63;;
69979;SDS011;57318;56.232;43.944;2023-02-15T17:21:55;15.52;;;7.32;;
69979;SDS011;57318;56.232;43.944;2023-02-15T17:24:42;17.45;;;6.72;;
69979;SDS011;57318;56.232;43.944;2023-02-15T17:27:18;15.68;;;6.97;;
69979;SDS011;57318;56.232;43.944;2023-02-15T17:29:47;14.25;;;6.95;;
69979;SDS011;57318;56.232;43.944;2023-02-15T17:32:24;13.80;;;7.13;;
69979;SDS011;57318;56.232;43.944;2023-02-15T17:40:19;17.58;;;6.88;;
69979;SDS011;57318;56.232;43.944;2023-02-15T17:42:49;13.80;;;6.78;;
69979;SDS011;57318;56.232;43.944;2023-02-15T17:45:16;15.02;;;6.93;;
69979;SDS011;57318;56.232;43.944;2023-02-15T17:47:43;16.92;;;7.05;;
69979;SDS011;57318;56.232;43.944;2023-02-15T17:50:30;14.30;;;7.03;;
69979;SDS011;57318;56.232;43.944;2023-02-15T17:52:57;22.17;;;7.00;;
69979;SDS011;57318;56.232;43.944;2023-02-15T17:58:06;14.25;;;7.13;;
69979;SDS011;57318;56.232;43.944;2023-02-15T18:00:41;13.38;;;6.47;;
69979;SDS011;57318;56.232;43.944;2023-02-15T18:03:46;17.63;;;7.82;;
69979;SDS011;57318;56.232;43.944;2023-02-15T18:06:33;16.05;;;6.65;;
69979;SDS011;57318;56.232;43.944;2023-02-15T18:09:21;18.08;;;7.35;;
69979;SDS011;57318;56.232;43.944;2023-02-15T18:12:19;17.08;;;7.28;;
69979;SDS011;57318;56.232;43.944;2023-02-15T18:14:48;21.17;;;8.32;;
69979;SDS011;57318;56.232;43.944;2023-02-15T18:17:15;19.30;;;8.57;;
69979;SDS011;57318;56.232;43.944;2023-02-15T18:19:42;16.67;;;7.32;;